Voss, Texas
Current Conditions -  °F | °C
As of 3:35 AM on Friday 31 Oct 2014 (Local Time) from KCOM Reporting Station
Thunderstorm Thunderstorm  
Wind Chill: 57°   Ceiling: Unl
Heat Index: 57°   Visibility: 10mi
Dew Point: 51°   Wind: 8mph
Humidity: 82%   Direction: 10°N
Pressure: 30.25"   Gusts: NA
Location:  31.62°N, 99.56°W
Report Text: KCOM 310835Z AUTO 01007KT 10SM VCTS CLR 14/11 A3025 RMK AO2 T01370106
Loading
Personal Weather Stations






























Interactive Weather Map
Tropical Storm Tracking
New forecast layout! Learn more

10-Day Weather Forecast

Advertisements
Track Severe Weather on mobile